createdAt,value
2022-08-17T00:00:34.648Z,94582.47
2022-08-17T00:03:25.734Z,94578.00
2022-08-17T00:05:59.805Z,94567.38
2022-08-17T00:08:39.738Z,94564.19
2022-08-17T00:11:11.820Z,94571.41
2022-08-17T00:13:48.104Z,94562.63
2022-08-17T00:16:56.185Z,94561.53
2022-08-17T00:19:24.813Z,94557.28
2022-08-17T00:22:32.890Z,94558.91
2022-08-17T00:24:43.741Z,94562.66
2022-08-17T00:27:10.808Z,94556.22
2022-08-17T00:29:38.389Z,94541.59
2022-08-17T00:33:16.011Z,94552.50
2022-08-17T00:34:53.076Z,94558.66
2022-08-17T00:37:20.501Z,94556.50
2022-08-17T00:39:47.746Z,94554.63
2022-08-17T00:42:19.316Z,94554.63
2022-08-17T00:44:46.987Z,94564.00
2022-08-17T00:47:14.120Z,94544.53
2022-08-17T00:49:41.205Z,94546.91
2022-08-17T00:52:17.238Z,94548.50
2022-08-17T00:54:50.185Z,94553.59
2022-08-17T00:57:40.689Z,94546.38
2022-08-17T01:00:33.316Z,94546.66
2022-08-17T01:03:22.043Z,94562.41
2022-08-17T01:05:54.241Z,94558.94
2022-08-17T01:08:26.576Z,94561.06
2022-08-17T01:11:01.815Z,94556.78
2022-08-17T01:13:41.601Z,94554.91
2022-08-17T01:16:31.158Z,94550.94
2022-08-17T01:19:03.314Z,94549.59
2022-08-17T01:22:14.432Z,94550.66
2022-08-17T01:24:47.345Z,94550.63
2022-08-17T01:27:18.499Z,94554.91
2022-08-17T01:29:53.092Z,94560.25
2022-08-17T01:32:20.952Z,94560.19
2022-08-17T01:34:50.205Z,94560.44
2022-08-17T01:37:21.552Z,94555.91
2022-08-17T01:40:00.715Z,94567.91
2022-08-17T01:42:38.046Z,94558.81
2022-08-17T01:45:18.972Z,94562.28
2022-08-17T01:47:46.230Z,94563.06
2022-08-17T01:50:31.935Z,94565.44
2022-08-17T01:53:07.913Z,94570.50
2022-08-17T01:55:44.517Z,94572.34
2022-08-17T01:58:11.926Z,94569.16
2022-08-17T02:00:59.411Z,94576.03
2022-08-17T02:03:29.629Z,94574.19
2022-08-17T02:05:57.556Z,94575.22
2022-08-17T02:08:39.164Z,94588.00
2022-08-17T02:11:17.830Z,94588.25
2022-08-17T02:13:49.525Z,94576.00
2022-08-17T02:16:26.953Z,94561.84
2022-08-17T02:19:10.854Z,94570.41
2022-08-17T02:21:40.452Z,94571.19
2022-08-17T02:24:12.417Z,94566.69
2022-08-17T02:26:39.621Z,94562.41
2022-08-17T02:29:07.347Z,94559.75
2022-08-17T02:31:35.667Z,94566.91
2022-08-17T02:34:04.778Z,94565.84
2022-08-17T02:36:36.555Z,94558.38
2022-08-17T02:39:08.666Z,94570.63
2022-08-17T02:41:36.970Z,94569.81
2022-08-17T02:44:06.288Z,94566.88
2022-08-17T02:46:34.113Z,94567.38
2022-08-17T02:49:01.405Z,94570.31
2022-08-17T02:51:29.448Z,94569.53
2022-08-17T02:54:02.187Z,94570.00
2022-08-17T02:56:44.381Z,94568.09
2022-08-17T02:59:11.507Z,94572.09
2022-08-17T03:01:38.752Z,94577.41
2022-08-17T03:04:07.021Z,94568.63
2022-08-17T03:06:34.057Z,94569.16
2022-08-17T03:09:01.325Z,94572.09
2022-08-17T03:11:28.784Z,94577.97
2022-08-17T03:13:55.916Z,94574.75
2022-08-17T03:16:23.548Z,94569.13
2022-08-17T03:18:50.869Z,94562.22
2022-08-17T03:21:18.002Z,94576.06
2022-08-17T03:23:45.309Z,94579.78
2022-08-17T03:26:15.614Z,94569.13
2022-08-17T03:28:43.636Z,94568.63
2022-08-17T03:31:10.805Z,94567.31
2022-08-17T03:33:38.204Z,94569.72
2022-08-17T03:36:06.900Z,94571.59
2022-08-17T03:38:39.433Z,94564.38
2022-08-17T03:41:07.368Z,94561.47
2022-08-17T03:43:34.798Z,94568.38
2022-08-17T03:46:34.138Z,94567.34
2022-08-17T03:49:24.098Z,94572.38
2022-08-17T03:52:11.940Z,94568.09
2022-08-17T03:54:57.842Z,94562.50
2022-08-17T03:57:26.182Z,94564.34
2022-08-17T03:59:54.455Z,94559.53
2022-08-17T04:02:30.544Z,94553.66
2022-08-17T04:04:58.734Z,94559.25
2022-08-17T04:07:30.319Z,94553.38
2022-08-17T04:09:58.065Z,94557.09
2022-08-17T04:12:31.015Z,94560.81
2022-08-17T04:14:59.243Z,94554.69
2022-08-17T04:17:29.152Z,94555.50
2022-08-17T04:19:57.342Z,94555.50
2022-08-17T04:22:31.882Z,94555.50
2022-08-17T04:25:19.326Z,94552.84
2022-08-17T04:27:46.393Z,94556.03
2022-08-17T04:30:13.973Z,94550.69
2022-08-17T04:33:10.963Z,94564.06
2022-08-17T04:35:49.977Z,94568.84
2022-08-17T04:38:21.837Z,94568.88
2022-08-17T04:41:08.010Z,94571.81
2022-08-17T04:43:36.666Z,94566.78
2022-08-17T04:46:19.941Z,94571.38
2022-08-17T04:48:52.882Z,94573.81
2022-08-17T04:51:32.397Z,94568.22
2022-08-17T04:54:07.744Z,94569.06
2022-08-17T04:56:36.804Z,94575.47
2022-08-17T04:59:18.007Z,94576.31
2022-08-17T05:01:48.179Z,94571.53
2022-08-17T05:04:33.990Z,94574.75
2022-08-17T05:07:04.162Z,94579.31
2022-08-17T05:09:31.641Z,94579.06
2022-08-17T05:12:02.510Z,94574.28
2022-08-17T05:14:33.062Z,94572.16
2022-08-17T05:17:01.563Z,94578.09
2022-08-17T05:19:32.100Z,94578.63
2022-08-17T05:21:59.126Z,94582.38
2022-08-17T05:24:38.335Z,94576.53
2022-08-17T05:27:09.915Z,94576.81
2022-08-17T05:29:42.302Z,94577.34
2022-08-17T05:32:38.550Z,94574.94
2022-08-17T05:35:02.000Z,94573.31
2022-08-17T05:37:29.046Z,94576.78
2022-08-17T05:39:56.626Z,94570.13
2022-08-17T05:42:24.173Z,94578.94
2022-08-17T05:44:51.214Z,94575.16
2022-08-17T05:47:18.902Z,94582.91
2022-08-17T05:49:49.074Z,94577.78
2022-08-17T05:52:40.300Z,94579.06
2022-08-17T05:55:16.095Z,94587.84
2022-08-17T05:58:00.217Z,94585.41
2022-08-17T06:00:42.175Z,94583.00
2022-08-17T06:03:46.823Z,94586.41
2022-08-17T06:06:35.398Z,94587.94
2022-08-17T06:09:40.988Z,94592.97
2022-08-17T06:12:42.031Z,94588.88
2022-08-17T06:15:50.116Z,94585.84
2022-08-17T06:18:19.298Z,94594.28
2022-08-17T06:20:54.698Z,94593.13
2022-08-17T06:23:40.400Z,94589.00
2022-08-17T06:26:20.678Z,94597.97
2022-08-17T06:29:18.647Z,94596.50
2022-08-17T06:31:46.781Z,94596.94
2022-08-17T06:34:14.083Z,94592.00
2022-08-17T06:37:34.210Z,94589.16
2022-08-17T06:40:45.471Z,94591.16
2022-08-17T06:43:40.165Z,94585.09
2022-08-17T06:46:15.401Z,94578.50
2022-08-17T06:49:09.053Z,94592.00
2022-08-17T06:51:42.066Z,94590.81
2022-08-17T06:54:39.288Z,94579.91
2022-08-17T06:57:18.154Z,94576.03
2022-08-17T07:00:08.250Z,94582.81
2022-08-17T07:03:03.019Z,94589.63
2022-08-17T07:05:49.663Z,94586.28
2022-08-17T07:08:35.010Z,94580.19
2022-08-17T07:11:13.465Z,94581.88
2022-08-17T07:14:04.734Z,94578.22
2022-08-17T07:17:01.963Z,94586.41
2022-08-17T07:19:33.853Z,94580.84
2022-08-17T07:22:57.470Z,94593.00
2022-08-17T07:25:27.497Z,94585.84
2022-08-17T07:28:00.289Z,94583.00
2022-08-17T07:30:31.269Z,94579.09
2022-08-17T07:33:20.276Z,94580.31
2022-08-17T07:35:49.991Z,94577.09
2022-08-17T07:38:26.876Z,94575.31
2022-08-17T07:40:58.145Z,94576.97
2022-08-17T07:43:35.218Z,94583.25
2022-08-17T07:46:30.561Z,94577.97
2022-08-17T07:49:08.021Z,94583.94
2022-08-17T07:51:44.051Z,94579.41
2022-08-17T07:54:23.238Z,94584.56
2022-08-17T07:57:08.866Z,94587.00
2022-08-17T07:59:40.761Z,94589.75
2022-08-17T08:02:22.722Z,94590.63
2022-08-17T08:05:06.798Z,94585.00
2022-08-17T08:08:14.546Z,94591.56
2022-08-17T08:10:45.221Z,94589.25
2022-08-17T08:13:20.478Z,94584.69
2022-08-17T08:16:17.702Z,94589.31
2022-08-17T08:18:55.755Z,94589.38
2022-08-17T08:21:44.160Z,94587.50
2022-08-17T08:24:45.879Z,94585.94
2022-08-17T08:27:44.217Z,94592.53
2022-08-17T08:30:24.112Z,94594.44
2022-08-17T08:33:38.129Z,94585.91
2022-08-17T08:37:02.052Z,94583.06
2022-08-17T08:39:43.587Z,94596.25
2022-08-17T08:42:32.267Z,94591.38
2022-08-17T08:45:09.559Z,94597.41
2022-08-17T08:47:55.294Z,94593.13
2022-08-17T08:50:46.822Z,94595.91
2022-08-17T08:53:21.284Z,94602.75
2022-08-17T08:55:56.430Z,94604.63
2022-08-17T08:58:52.227Z,94597.34
2022-08-17T09:01:55.008Z,94590.34
2022-08-17T09:05:14.219Z,94608.47
2022-08-17T09:08:19.297Z,94604.16
2022-08-17T09:11:09.391Z,94605.78
2022-08-17T09:13:56.800Z,94593.41
2022-08-17T09:16:36.091Z,94593.72
2022-08-17T09:19:11.892Z,94596.38
2022-08-17T09:21:56.932Z,94594.63
2022-08-17T09:24:46.174Z,94595.25
2022-08-17T09:27:28.062Z,94596.66
2022-08-17T09:30:06.801Z,94598.09
2022-08-17T09:32:49.909Z,94591.38
2022-08-17T09:35:48.008Z,94591.53
2022-08-17T09:38:35.116Z,94582.16
2022-08-17T09:41:27.275Z,94588.19
2022-08-17T09:44:23.125Z,94579.91
2022-08-17T09:47:06.260Z,94580.53
2022-08-17T09:49:45.665Z,94578.56
2022-08-17T09:52:27.257Z,94572.66
2022-08-17T09:54:57.701Z,94580.72
2022-08-17T09:57:43.005Z,94573.22
2022-08-17T10:00:29.051Z,94567.28
2022-08-17T10:03:09.660Z,94562.16
2022-08-17T10:05:57.183Z,94563.22
2022-08-17T10:08:28.245Z,94569.38
2022-08-17T10:11:14.903Z,94572.34
2022-08-17T10:13:59.524Z,94567.22
2022-08-17T10:16:55.907Z,94571.31
2022-08-17T10:19:38.877Z,94560.41
2022-08-17T10:22:45.688Z,94571.03
2022-08-17T10:25:54.027Z,94566.25
2022-08-17T10:28:30.547Z,94573.84
2022-08-17T10:31:34.236Z,94571.38
2022-08-17T10:34:21.242Z,94570.38
2022-08-17T10:37:25.227Z,94566.81
2022-08-17T10:40:27.768Z,94563.09
2022-08-17T10:43:21.313Z,94564.13
2022-08-17T10:46:30.079Z,94559.63
2022-08-17T10:49:17.462Z,94549.69
2022-08-17T10:51:48.042Z,94551.88
2022-08-17T10:54:49.093Z,94557.41
2022-08-17T10:57:33.919Z,94556.06
2022-08-17T11:00:39.569Z,94553.16
2022-08-17T11:03:21.015Z,94553.41
2022-08-17T11:06:34.256Z,94550.13
2022-08-17T11:09:20.008Z,94551.13
2022-08-17T11:12:16.001Z,94551.72
2022-08-17T11:14:58.207Z,94547.63
2022-08-17T11:17:57.723Z,94547.75
2022-08-17T11:21:25.175Z,94543.28
2022-08-17T11:24:32.939Z,94539.22
2022-08-17T11:27:23.678Z,94538.28
2022-08-17T11:30:02.716Z,94537.38
2022-08-17T11:32:47.755Z,94548.00
2022-08-17T11:35:21.989Z,94540.41
2022-08-17T11:38:13.544Z,94542.88
2022-08-17T11:41:14.071Z,94542.53
2022-08-17T11:44:03.795Z,94532.94
2022-08-17T11:47:15.278Z,94529.97
2022-08-17T11:50:19.073Z,94529.63
2022-08-17T11:52:49.498Z,94539.50
2022-08-17T11:55:39.658Z,94526.47
2022-08-17T11:58:41.664Z,94537.44
2022-08-17T12:01:24.301Z,94526.34
2022-08-17T12:03:57.747Z,94525.63
2022-08-17T12:06:34.870Z,94527.41
2022-08-17T12:09:13.810Z,94531.81
2022-08-17T12:12:12.799Z,94530.44
2022-08-17T12:15:09.486Z,94518.28
2022-08-17T12:17:41.550Z,94517.31
2022-08-17T12:20:27.943Z,94512.59
2022-08-17T12:23:05.271Z,94516.84
2022-08-17T12:26:05.267Z,94514.75
2022-08-17T12:28:38.943Z,94526.16
2022-08-17T12:31:45.909Z,94526.84
2022-08-17T12:34:27.092Z,94514.88
2022-08-17T12:37:11.070Z,94518.84
2022-08-17T12:39:39.357Z,94522.22
2022-08-17T12:42:23.697Z,94513.81
2022-08-17T12:44:50.981Z,94512.34
2022-08-17T12:47:22.642Z,94513.53
2022-08-17T12:49:54.021Z,94509.56
2022-08-17T12:52:24.591Z,94505.44
2022-08-17T12:55:06.185Z,94496.09
2022-08-17T12:57:46.634Z,94492.91
2022-08-17T13:00:32.331Z,94484.91
2022-08-17T13:03:09.642Z,94485.38
2022-08-17T13:05:48.609Z,94485.06
2022-08-17T13:08:38.034Z,94490.94
2022-08-17T13:11:19.713Z,94481.78
2022-08-17T13:13:54.724Z,94498.69
2022-08-17T13:16:29.696Z,94480.00
2022-08-17T13:19:40.475Z,94483.72
2022-08-17T13:22:15.049Z,94483.97
2022-08-17T13:25:00.700Z,94474.88
2022-08-17T13:27:29.528Z,94487.59
2022-08-17T13:30:07.965Z,94482.28
2022-08-17T13:32:43.985Z,94477.50
2022-08-17T13:35:41.003Z,94475.91
2022-08-17T13:38:14.762Z,94485.16
2022-08-17T13:40:50.143Z,94478.44
2022-08-17T13:43:44.758Z,94484.28
2022-08-17T13:46:26.985Z,94476.44
2022-08-17T13:49:05.832Z,94476.53
2022-08-17T13:51:44.506Z,94477.69
2022-08-17T13:54:31.426Z,94478.34
2022-08-17T13:57:01.360Z,94472.31
2022-08-17T13:59:54.829Z,94465.56
2022-08-17T14:02:28.456Z,94467.69
2022-08-17T14:04:59.484Z,94469.06
2022-08-17T14:07:36.103Z,94474.44
2022-08-17T14:10:06.355Z,94473.44
2022-08-17T14:12:35.584Z,94474.72
2022-08-17T14:15:03.013Z,94472.38
2022-08-17T14:17:36.329Z,94482.25
2022-08-17T14:20:12.321Z,94473.06
2022-08-17T14:22:44.950Z,94473.09
2022-08-17T14:25:26.108Z,94471.25
2022-08-17T14:27:54.255Z,94464.63
2022-08-17T14:30:29.947Z,94471.47
2022-08-17T14:32:58.944Z,94459.09
2022-08-17T14:35:28.114Z,94465.28
2022-08-17T14:37:56.148Z,94461.69
2022-08-17T14:40:26.949Z,94460.38
2022-08-17T14:42:56.933Z,94465.44
2022-08-17T14:45:29.895Z,94472.00
2022-08-17T14:48:04.770Z,94474.66
2022-08-17T14:50:35.400Z,94464.56
2022-08-17T14:53:05.695Z,94464.94
2022-08-17T14:55:36.740Z,94460.94
2022-08-17T14:58:04.151Z,94465.56
2022-08-17T15:00:32.171Z,94466.94
2022-08-17T15:03:01.471Z,94470.16
2022-08-17T15:05:34.450Z,94467.00
2022-08-17T15:08:03.473Z,94467.00
2022-08-17T15:10:31.493Z,94474.16
2022-08-17T15:12:59.857Z,94477.72
2022-08-17T15:15:28.047Z,94467.31
2022-08-17T15:17:55.612Z,94475.38
2022-08-17T15:20:28.736Z,94475.69
2022-08-17T15:22:58.813Z,94467.19
2022-08-17T15:25:34.870Z,94464.69
2022-08-17T15:28:02.453Z,94464.53
2022-08-17T15:30:29.883Z,94468.75
2022-08-17T15:32:58.853Z,94468.56
2022-08-17T15:35:30.449Z,94463.59
2022-08-17T15:38:10.713Z,94456.47
2022-08-17T15:40:47.457Z,94452.28
2022-08-17T15:43:27.679Z,94460.03
2022-08-17T15:46:10.461Z,94458.19
2022-08-17T15:48:41.950Z,94452.41
2022-08-17T15:51:24.517Z,94452.56
2022-08-17T15:53:54.785Z,94454.59
2022-08-17T15:56:22.719Z,94453.34
2022-08-17T15:58:50.610Z,94442.66
2022-08-17T16:01:46.562Z,94442.31
2022-08-17T16:04:26.845Z,94450.03
2022-08-17T16:06:58.089Z,94463.09
2022-08-17T16:09:25.075Z,94449.81
2022-08-17T16:11:55.256Z,94449.03
2022-08-17T16:14:24.487Z,94447.53
2022-08-17T16:16:59.125Z,94448.94
2022-08-17T16:19:26.215Z,94442.56
2022-08-17T16:21:53.441Z,94448.78
2022-08-17T16:24:20.455Z,94447.66
2022-08-17T16:26:47.460Z,94446.72
2022-08-17T16:29:15.934Z,94439.56
2022-08-17T16:31:43.347Z,94431.88
2022-08-17T16:34:18.046Z,94434.34
2022-08-17T16:36:55.598Z,94434.53
2022-08-17T16:39:29.350Z,94430.66
2022-08-17T16:41:57.420Z,94446.56
2022-08-17T16:44:25.961Z,94432.69
2022-08-17T16:46:53.747Z,94440.06
2022-08-17T16:49:35.992Z,94439.13
2022-08-17T16:52:10.810Z,94448.97
2022-08-17T16:54:44.360Z,94445.44
2022-08-17T16:57:17.567Z,94449.38
2022-08-17T16:59:50.197Z,94443.06
2022-08-17T17:02:47.172Z,94437.66
2022-08-17T17:05:48.481Z,94442.06
2022-08-17T17:08:49.320Z,94441.91
2022-08-17T17:11:28.364Z,94449.38
2022-08-17T17:13:59.538Z,94451.69
2022-08-17T17:16:37.648Z,94458.63
2022-08-17T17:19:36.252Z,94466.66
2022-08-17T17:22:30.988Z,94472.16
2022-08-17T17:25:16.074Z,94475.50
2022-08-17T17:28:07.592Z,94479.13
2022-08-17T17:31:08.765Z,94481.47
2022-08-17T17:33:47.805Z,94485.66
2022-08-17T17:36:43.445Z,94488.22
2022-08-17T17:39:41.375Z,94485.41
2022-08-17T17:42:22.869Z,94484.78
2022-08-17T17:45:09.058Z,94493.94
2022-08-17T17:47:37.536Z,94497.69
2022-08-17T17:50:06.977Z,94501.72
2022-08-17T17:52:55.172Z,94504.13
2022-08-17T17:55:51.748Z,94506.47
2022-08-17T17:58:55.781Z,94506.38
2022-08-17T18:01:30.803Z,94513.84
2022-08-17T18:04:28.864Z,94520.03
2022-08-17T18:07:28.406Z,94527.88
2022-08-17T18:10:30.544Z,94528.50
2022-08-17T18:13:12.283Z,94526.63
2022-08-17T18:15:51.117Z,94515.09
2022-08-17T18:18:18.079Z,94510.25
2022-08-17T18:20:55.798Z,94509.19
2022-08-17T18:23:28.221Z,94508.63
2022-08-17T18:25:56.867Z,94509.56
2022-08-17T18:28:38.920Z,94500.50
2022-08-17T18:31:18.597Z,94492.44
2022-08-17T18:33:50.576Z,94499.03
2022-08-17T18:36:36.608Z,94492.31
2022-08-17T18:39:21.454Z,94500.72
2022-08-17T18:41:52.573Z,94506.50
2022-08-17T18:44:32.761Z,94510.28
2022-08-17T18:47:18.590Z,94513.84
2022-08-17T18:49:53.583Z,94511.41
2022-08-17T18:52:31.447Z,94517.97
2022-08-17T18:55:15.816Z,94513.59
2022-08-17T18:57:48.963Z,94517.28
2022-08-17T19:00:40.205Z,94520.22
2022-08-17T19:03:25.121Z,94513.41
2022-08-17T19:06:21.492Z,94516.47
2022-08-17T19:08:48.870Z,94526.97
2022-08-17T19:11:34.348Z,94523.44
2022-08-17T19:14:10.624Z,94512.66
2022-08-17T19:16:49.350Z,94523.97
2022-08-17T19:19:24.225Z,94523.66
2022-08-17T19:21:58.995Z,94511.13
2022-08-17T19:24:32.543Z,94519.84
2022-08-17T19:27:17.965Z,94519.84
2022-08-17T19:30:08.580Z,94511.28
2022-08-17T19:32:36.525Z,94515.69
2022-08-17T19:35:07.411Z,94509.97
2022-08-17T19:37:53.754Z,94514.22
2022-08-17T19:40:55.107Z,94518.84
2022-08-17T19:43:22.206Z,94513.91
2022-08-17T19:46:06.096Z,94501.50
2022-08-17T19:49:11.885Z,94508.31
2022-08-17T19:51:44.961Z,94502.75
2022-08-17T19:54:24.907Z,94506.19
2022-08-17T19:57:12.516Z,94492.38
2022-08-17T19:59:57.760Z,94494.09
2022-08-17T20:02:33.913Z,94488.88
2022-08-17T20:05:26.936Z,94486.16
2022-08-17T20:08:13.543Z,94492.13
2022-08-17T20:10:59.657Z,94498.00
2022-08-17T20:13:49.140Z,94495.72
2022-08-17T20:16:19.353Z,94496.38
2022-08-17T20:19:06.867Z,94485.25
2022-08-17T20:21:44.233Z,94483.28
2022-08-17T20:24:28.965Z,94482.41
2022-08-17T20:27:05.182Z,94487.94
2022-08-17T20:29:55.288Z,94487.56
2022-08-17T20:32:30.075Z,94489.59
2022-08-17T20:35:27.609Z,94490.34
2022-08-17T20:38:36.187Z,94496.97
2022-08-17T20:41:03.961Z,94504.84
2022-08-17T20:43:33.927Z,94514.34
2022-08-17T20:46:46.409Z,94517.75
2022-08-17T20:49:44.935Z,94528.22
2022-08-17T20:52:35.056Z,94538.47
2022-08-17T20:55:04.441Z,94557.63
2022-08-17T20:57:31.602Z,94559.81
2022-08-17T21:00:15.366Z,94555.84
2022-08-17T21:02:46.647Z,94557.25
2022-08-17T21:05:38.961Z,94550.84
2022-08-17T21:08:18.780Z,94547.97
2022-08-17T21:10:47.196Z,94555.03
2022-08-17T21:13:15.803Z,94572.09
2022-08-17T21:15:53.102Z,94575.69
2022-08-17T21:18:52.861Z,94576.91
2022-08-17T21:21:43.089Z,94582.41
2022-08-17T21:25:03.274Z,94590.53
2022-08-17T21:27:39.565Z,94587.97
2022-08-17T21:30:09.956Z,94578.59
2022-08-17T21:32:41.903Z,94580.78
2022-08-17T21:35:28.431Z,94572.53
2022-08-17T21:38:03.681Z,94571.25
2022-08-17T21:40:33.784Z,94579.41
2022-08-17T21:43:24.217Z,94574.41
2022-08-17T21:46:12.537Z,94568.91
2022-08-17T21:48:48.291Z,94574.41
2022-08-17T21:51:22.951Z,94577.50
2022-08-17T21:53:57.316Z,94577.56
2022-08-17T21:56:39.482Z,94565.81
2022-08-17T21:59:38.406Z,94578.75
2022-08-17T22:02:09.992Z,94578.28
2022-08-17T22:04:41.493Z,94576.94
2022-08-17T22:07:14.149Z,94563.03
2022-08-17T22:09:50.003Z,94556.66
2022-08-17T22:12:24.217Z,94555.34
2022-08-17T22:15:04.332Z,94561.34
2022-08-17T22:17:41.280Z,94555.75
2022-08-17T22:20:15.888Z,94556.63
2022-08-17T22:23:04.377Z,94556.13
2022-08-17T22:25:36.115Z,94553.53
2022-08-17T22:28:11.024Z,94550.72
2022-08-17T22:30:46.943Z,94552.34
2022-08-17T22:33:32.792Z,94545.91
2022-08-17T22:36:28.946Z,94543.31
2022-08-17T22:39:10.207Z,94539.66
2022-08-17T22:41:51.336Z,94534.84
2022-08-17T22:44:31.915Z,94540.31
2022-08-17T22:47:19.452Z,94526.69
2022-08-17T22:49:59.547Z,94523.56
2022-08-17T22:52:58.745Z,94533.56
2022-08-17T22:55:45.207Z,94535.06
2022-08-17T22:58:38.968Z,94533.53
2022-08-17T23:01:32.457Z,94528.03
2022-08-17T23:04:04.724Z,94521.38
2022-08-17T23:06:34.192Z,94522.25
2022-08-17T23:09:04.645Z,94521.22
2022-08-17T23:11:50.325Z,94510.84
2022-08-17T23:14:20.416Z,94512.22
2022-08-17T23:16:50.520Z,94520.56
2022-08-17T23:19:21.035Z,94521.13
2022-08-17T23:21:50.418Z,94523.81
2022-08-17T23:24:28.595Z,94514.47
2022-08-17T23:26:58.252Z,94511.34
2022-08-17T23:29:29.391Z,94519.91
2022-08-17T23:32:00.010Z,94523.97
2022-08-17T23:34:28.399Z,94524.53
2022-08-17T23:36:56.823Z,94516.78
2022-08-17T23:39:28.055Z,94513.88
2022-08-17T23:42:00.844Z,94528.34
2022-08-17T23:44:28.975Z,94525.16
2022-08-17T23:46:56.756Z,94514.50
2022-08-17T23:49:25.025Z,94508.94
2022-08-17T23:51:54.832Z,94503.06
2022-08-17T23:54:43.977Z,94496.91
2022-08-17T23:57:18.016Z,94488.94
2022-08-17T23:59:46.070Z,94492.69
